Airfield :
LOGIN :

Register | Disclaimer

   EN    FR    IT 

 










Legend :    VFR   Marginal VFR   IFR   Intensive IFR   Very Intensive IFR
Visi :
Ceiling :
>= 8 km
>= 3000ft
5 to 8 km
1000 to 3000 ft
1500m to 5 km
500 to 1000 ft
800 to 1500m
200 to 500 ft
< 800m
< 200 ft
Symbols :   Thunderstorms  Fog  Heavy snow  Heavy precipitations  Wind > 20 kt
SIGMETs :     Misc.  Thunderstorms  Icing  Turbulence  Mountain Waves  Volcanic Ashes






- Airport Elevation : 616 ft
- IATA code : PUF


LFBP - Pau

CURRENT METAR :
  • 110000Z AUTO 13003KT 9999 SCT064 BKN080 BKN120 07/04 Q1020 NOSIG

EXPIRED METARs :
  • 102330Z AUTO 12004KT CAVOK 07/03 Q1020 NOSIG
  • 102300Z AUTO 11005KT 9999 FEW088 OVC140 07/04 Q1020 NOSIG
  • 102230Z AUTO 13005KT CAVOK 06/04 Q1021 NOSIG
  • 102200Z AUTO 12005KT CAVOK 06/04 Q1021 NOSIG
  • 102130Z AUTO 12007KT CAVOK 06/04 Q1021 NOSIG

TAF TAF LFBP
Valid from the 11 at 00:00 until the 12 at 00:00 UTC


102300Z 1100/1124 12005KT CAVOK
BECMG 1106/1108 26010KT
PROB40 1108/1113 28015G30KT 3000 RA OVC007
TEMPO 1113/1124 28015G35KT 2000 SHRA SCT015CB BKN020TCU



MET'MAP, your aeronautical weather chart ! - Copyright ORBIFLY December 2007 - Disclaimer

ORBIFLY MET'MAP TEAM :

Programming & Development : Alexandra Zaïnal
Concept & original design : Baudouin d'Aumeries
Assistance for programming : Marc-Olivier Méhu
Technical & hardware support : Manuel Goepfert

Contact : metmap@orbifly.com




SOURCES & CREDITS :

   NOAA